Time;durP1;ratioP1;P1;durP2;ratioP2;P2;SDS_P1;SDS_P2;PMS_P1;PMS_P2;Temp;Humidity;BMP_temperature;BMP_pressure;BME280_temperature;BME280_humidity;BME280_pressure;Samples;Min_cycle;Max_cycle;Signal;HPM_P1;HPM_P2
2022/09/16 00:01:14;;;;;;;0.93;0.93;;;22.30;66.40;;;;;;5051431;28;20199;-78
2022/09/16 00:03:40;;;;;;;3.70;1.00;;;22.20;66.50;;;;;;5051141;28;20741;-78
2022/09/16 00:06:06;;;;;;;3.55;1.08;;;22.20;65.80;;;;;;5052655;28;20616;-80
2022/09/16 00:08:32;;;;;;;2.92;1.02;;;22.20;65.90;;;;;;5051256;28;20218;-80
2022/09/16 00:11:01;;;;;;;1.83;1.00;;;22.30;66.30;;;;;;5061300;28;20606;-80
2022/09/16 00:13:27;;;;;;;1.83;0.80;;;22.20;65.60;;;;;;5068043;28;20191;-80
2022/09/16 00:15:53;;;;;;;2.05;1.00;;;22.20;66.50;;;;;;5057062;28;20223;-80
2022/09/16 00:18:19;;;;;;;2.08;1.40;;;22.20;66.30;;;;;;5059023;28;20179;-81
2022/09/16 00:20:47;;;;;;;0.95;0.95;;;22.20;66.20;;;;;;5052444;28;20695;-80
2022/09/16 00:23:13;;;;;;;1.35;1.25;;;22.10;65.40;;;;;;5056226;28;20236;-81
2022/09/16 00:25:40;;;;;;;3.85;1.35;;;22.10;67.80;;;;;;5047518;28;20184;-80
2022/09/16 00:28:05;;;;;;;1.38;1.30;;;22.10;66.60;;;;;;5052835;28;20175;-80
2022/09/16 00:30:31;;;;;;;2.45;1.17;;;22.00;67.40;;;;;;5060675;28;20202;-80
2022/09/16 00:32:56;;;;;;;3.20;1.10;;;22.00;67.50;;;;;;5056856;28;20253;-79
2022/09/16 00:35:22;;;;;;;4.47;1.33;;;22.00;67.30;;;;;;5049688;28;20211;-79
2022/09/16 00:37:48;;;;;;;1.00;1.00;;;22.00;67.70;;;;;;5056072;28;20183;-78
2022/09/16 00:40:13;;;;;;;4.13;0.88;;;21.90;66.80;;;;;;5050768;28;20179;-79
2022/09/16 00:42:39;;;;;;;2.72;1.15;;;21.90;66.40;;;;;;5055405;28;20183;-77
2022/09/16 00:45:18;;;;;;;1.05;1.00;;;21.80;66.70;;;;;;5055014;28;20187;-80
2022/09/16 00:47:58;;;;;;;1.75;1.08;;;21.80;65.40;;;;;;5052465;28;20600;-79
2022/09/16 00:50:45;;;;;;;1.85;0.95;;;21.70;65.60;;;;;;5050903;28;20175;-79
2022/09/16 00:53:16;;;;;;;1.10;0.88;;;21.70;65.90;;;;;;5050443;28;20262;-80
2022/09/16 00:55:43;;;;;;;1.60;0.82;;;21.80;67.90;;;;;;5048853;28;20215;-80
2022/09/16 00:58:21;;;;;;;1.15;1.00;;;21.70;66.70;;;;;;5056550;28;20203;-80
2022/09/16 01:00:48;;;;;;;2.38;1.40;;;21.70;66.50;;;;;;5056697;28;20187;-80
2022/09/16 01:03:13;;;;;;;1.13;1.13;;;21.70;66.00;;;;;;5054427;28;20229;-80
2022/09/16 01:05:40;;;;;;;7.75;1.58;;;21.60;67.10;;;;;;5052815;28;20211;-79
2022/09/16 01:08:05;;;;;;;1.17;1.08;;;21.60;67.10;;;;;;5055463;28;20837;-80
2022/09/16 01:10:31;;;;;;;1.75;0.90;;;21.60;67.90;;;;;;5054377;28;20179;-80
2022/09/16 01:13:03;;;;;;;0.90;0.75;;;21.60;67.20;;;;;;5056712;28;20574;-80
2022/09/16 01:15:49;;;;;;;4.60;1.27;;;21.60;68.50;;;;;;5057692;28;20948;-80
2022/09/16 01:18:20;;;;;;;1.08;0.95;;;21.50;69.10;;;;;;5013065;28;20250;-80
2022/09/16 01:20:57;;;;;;;1.85;0.90;;;21.50;67.30;;;;;;5024097;28;20223;-79
2022/09/16 01:23:23;;;;;;;2.50;0.95;;;21.40;66.70;;;;;;5024413;28;20257;-80
2022/09/16 01:26:07;;;;;;;1.15;1.08;;;21.40;67.10;;;;;;5024585;28;20596;-80
2022/09/16 01:28:51;;;;;;;1.92;1.23;;;21.50;68.30;;;;;;5024105;28;20709;-79
2022/09/16 01:31:32;;;;;;;4.57;1.00;;;21.40;67.10;;;;;;5021167;28;20993;-79
2022/09/16 01:34:41;;;;;;;5.22;1.20;;;21.40;67.30;;;;;;5023633;28;20214;-78
2022/09/16 01:37:42;;;;;;;1.30;1.15;;;21.40;69.30;;;;;;4981705;28;20912;-78
2022/09/16 01:40:23;;;;;;;1.27;1.17;;;21.40;67.40;;;;;;4888908;29;20225;-80
2022/09/16 01:43:32;;;;;;;2.30;0.93;;;21.30;66.50;;;;;;4887383;29;21058;-80
2022/09/16 01:46:31;;;;;;;1.02;0.77;;;21.40;69.00;;;;;;4887318;29;20205;-80
2022/09/16 01:49:04;;;;;;;1.90;1.00;;;21.40;70.60;;;;;;4889086;29;20224;-79
2022/09/16 01:51:47;;;;;;;2.75;1.20;;;21.30;69.70;;;;;;4888050;29;20201;-80
2022/09/16 01:55:01;;;;;;;1.10;1.10;;;21.30;68.30;;;;;;4887210;29;20225;-79
2022/09/16 01:57:49;;;;;;;0.85;0.68;;;21.30;69.30;;;;;;4833474;29;20738;-79
2022/09/16 02:00:16;;;;;;;2.78;0.93;;;21.30;71.40;;;;;;4832638;29;20758;-79
2022/09/16 02:02:49;;;;;;;0.73;0.70;;;21.20;69.20;;;;;;4833026;29;20699;-79
2022/09/16 02:05:37;;;;;;;4.68;1.17;;;21.20;69.70;;;;;;4831395;29;20290;-78
2022/09/16 02:08:10;;;;;;;0.80;0.80;;;21.20;71.40;;;;;;4815024;29;20758;-79
2022/09/16 02:10:47;;;;;;;3.60;1.08;;;21.20;68.80;;;;;;4813752;29;20702;-78
2022/09/16 02:13:33;;;;;;;4.45;1.05;;;21.20;69.10;;;;;;4818924;29;20203;-79
2022/09/16 02:16:06;;;;;;;1.45;0.93;;;21.10;68.40;;;;;;4867572;29;20214;-78
2022/09/16 02:18:35;;;;;;;2.28;1.05;;;21.10;68.00;;;;;;4925085;29;20326;-78
2022/09/16 02:21:05;;;;;;;3.50;1.27;;;21.10;69.10;;;;;;4924472;29;21803;-78
2022/09/16 02:23:40;;;;;;;1.33;0.93;;;21.20;68.60;;;;;;4922796;29;20191;-79
2022/09/16 02:26:08;;;;;;;2.00;0.80;;;21.10;68.00;;;;;;4922922;29;20202;-78
2022/09/16 02:28:38;;;;;;;3.00;0.88;;;21.20;69.60;;;;;;4924900;29;20270;-78
2022/09/16 02:31:07;;;;;;;2.10;0.77;;;21.20;69.80;;;;;;4922947;29;20196;-78
2022/09/16 02:33:46;;;;;;;1.10;0.70;;;21.20;69.70;;;;;;4966029;28;20376;-79
2022/09/16 02:36:14;;;;;;;0.80;0.75;;;21.20;69.80;;;;;;4989589;28;20227;-79
2022/09/16 02:38:45;;;;;;;6.80;0.88;;;21.20;71.40;;;;;;4985198;28;20194;-79
2022/09/16 02:41:13;;;;;;;1.10;1.10;;;21.10;70.40;;;;;;4985081;28;20719;-79
2022/09/16 02:43:43;;;;;;;1.38;0.60;;;21.10;70.10;;;;;;4986857;28;20197;-78
2022/09/16 02:46:14;;;;;;;0.60;0.60;;;21.10;70.50;;;;;;5041764;28;20648;-78
2022/09/16 02:49:06;;;;;;;0.60;0.60;;;21.10;70.50;;;;;;5050308;28;20262;-78
2022/09/16 02:52:07;;;;;;;2.95;0.90;;;21.10;69.80;;;;;;5007645;28;20201;-77
2022/09/16 02:54:51;;;;;;;0.95;0.95;;;21.10;71.50;;;;;;5004398;28;20223;-78
2022/09/16 02:57:17;;;;;;;0.88;0.73;;;21.00;70.30;;;;;;4989785;28;20203;-78
2022/09/16 02:59:43;;;;;;;2.55;0.88;;;21.00;71.80;;;;;;5006437;28;20271;-79
2022/09/16 03:02:09;;;;;;;1.45;0.75;;;21.00;72.60;;;;;;5008054;28;20197;-79
2022/09/16 03:04:35;;;;;;;0.98;0.85;;;20.90;70.20;;;;;;5006586;28;20280;-79
2022/09/16 03:07:04;;;;;;;1.25;0.90;;;20.90;70.60;;;;;;5009536;28;20185;-79
2022/09/16 03:09:30;;;;;;;1.75;0.70;;;21.00;70.90;;;;;;5008503;28;20196;-79
2022/09/16 03:12:04;;;;;;;0.70;0.70;;;21.00;70.00;;;;;;5013208;28;20275;-80
2022/09/16 03:15:05;;;;;;;0.80;0.80;;;21.00;70.20;;;;;;5011318;28;20303;-80
2022/09/16 03:17:50;;;;;;;2.97;1.13;;;21.00;69.60;;;;;;4956486;28;20193;-79
2022/09/16 03:20:35;;;;;;;0.77;0.77;;;21.10;69.70;;;;;;4951968;28;20222;-79
2022/09/16 03:23:06;;;;;;;3.42;1.00;;;21.10;70.80;;;;;;4952901;28;20270;-80
2022/09/16 03:26:06;;;;;;;1.85;0.80;;;21.10;69.40;;;;;;4954915;28;20198;-78
2022/09/16 03:28:59;;;;;;;1.17;0.70;;;21.20;71.50;;;;;;4972601;28;20345;-79
2022/09/16 03:31:43;;;;;;;4.25;0.90;;;21.20;70.00;;;;;;4995972;28;21629;-79
2022/09/16 03:34:22;;;;;;;1.20;1.10;;;21.20;69.60;;;;;;4986327;28;20272;-79
2022/09/16 03:36:57;;;;;;;0.95;0.90;;;21.30;69.80;;;;;;4985220;28;20188;-78
2022/09/16 03:39:23;;;;;;;3.08;0.82;;;21.30;71.30;;;;;;4987240;28;20867;-80
2022/09/16 03:41:48;;;;;;;3.95;1.17;;;21.30;71.40;;;;;;4992212;28;20182;-79
2022/09/16 03:44:14;;;;;;;2.10;1.55;;;21.20;70.90;;;;;;4958807;28;1133352;-79
2022/09/16 03:46:40;;;;;;;2.78;0.88;;;21.20;69.90;;;;;;4987865;28;20189;-79
2022/09/16 03:49:05;;;;;;;2.70;1.42;;;21.20;69.50;;;;;;4998207;28;20272;-79
2022/09/16 03:51:31;;;;;;;1.17;1.17;;;21.10;69.30;;;;;;5025825;28;20277;-79
2022/09/16 03:53:57;;;;;;;1.95;1.42;;;21.20;70.40;;;;;;5053051;28;20286;-78
2022/09/16 03:56:23;;;;;;;1.55;0.80;;;21.20;70.00;;;;;;5046152;28;20188;-78
2022/09/16 03:58:49;;;;;;;2.53;1.23;;;21.20;69.40;;;;;;5048959;28;20187;-78
2022/09/16 04:01:15;;;;;;;2.05;1.02;;;21.20;69.90;;;;;;5048989;28;20186;-78
2022/09/16 04:03:41;;;;;;;2.65;1.00;;;21.20;70.50;;;;;;5045598;28;20192;-79
2022/09/16 04:06:08;;;;;;;1.27;1.15;;;21.20;70.30;;;;;;5049569;28;20274;-79
2022/09/16 04:08:34;;;;;;;5.88;1.48;;;21.10;70.40;;;;;;5049025;28;20179;-79
2022/09/16 04:11:04;;;;;;;2.00;1.58;;;21.10;70.80;;;;;;5053151;28;20179;-77
2022/09/16 04:13:34;;;;;;;1.15;1.02;;;21.10;70.60;;;;;;5062359;28;20192;-79
2022/09/16 04:16:00;;;;;;;10.25;1.20;;;21.10;72.60;;;;;;5051793;28;20222;-77
2022/09/16 04:18:26;;;;;;;3.08;1.27;;;21.10;72.30;;;;;;5049862;28;20275;-80
2022/09/16 04:20:57;;;;;;;4.30;0.98;;;21.00;72.60;;;;;;5042455;28;20179;-79
2022/09/16 04:23:24;;;;;;;3.17;1.20;;;20.90;71.10;;;;;;5044184;28;20194;-80
2022/09/16 04:25:57;;;;;;;4.00;0.98;;;20.90;72.10;;;;;;5041954;28;20230;-81
2022/09/16 04:28:25;;;;;;;1.38;1.10;;;20.80;71.90;;;;;;5048916;28;20866;-83
2022/09/16 04:30:51;;;;;;;0.80;0.80;;;20.80;72.40;;;;;;5047993;28;20400;-83
2022/09/16 04:33:18;;;;;;;1.08;1.08;;;20.70;72.00;;;;;;5048434;28;20997;-81
2022/09/16 04:35:43;;;;;;;4.75;1.15;;;20.70;71.40;;;;;;5047035;28;20246;-82
2022/09/16 04:38:09;;;;;;;2.95;1.20;;;20.80;72.00;;;;;;5052936;28;20202;-81
2022/09/16 04:40:35;;;;;;;3.53;1.13;;;20.80;72.60;;;;;;5049666;28;22209;-79
2022/09/16 04:43:00;;;;;;;3.25;0.80;;;20.80;72.60;;;;;;5065036;28;20207;-79
2022/09/16 04:45:26;;;;;;;4.35;1.20;;;20.80;72.60;;;;;;5076990;28;20270;-77
2022/09/16 04:47:56;;;;;;;2.25;1.20;;;20.70;73.00;;;;;;5056369;28;20199;-75
2022/09/16 04:50:22;;;;;;;1.77;1.00;;;20.70;71.20;;;;;;5049531;28;20218;-78
2022/09/16 04:52:50;;;;;;;4.97;1.10;;;20.70;71.20;;;;;;5058309;28;20708;-78
2022/09/16 04:55:16;;;;;;;1.83;1.40;;;20.70;70.70;;;;;;5049831;28;20711;-77
2022/09/16 04:57:42;;;;;;;1.70;1.00;;;20.70;70.80;;;;;;5052304;28;20266;-77
2022/09/16 05:00:09;;;;;;;2.35;1.10;;;20.80;70.70;;;;;;5055423;28;20316;-78
2022/09/16 05:02:35;;;;;;;1.35;1.10;;;20.80;70.60;;;;;;5048169;28;20175;-77
2022/09/16 05:05:01;;;;;;;5.65;1.67;;;20.90;71.80;;;;;;5052300;28;20537;-75
2022/09/16 05:07:28;;;;;;;1.48;1.38;;;20.90;71.70;;;;;;5052118;28;20215;-76
2022/09/16 05:09:54;;;;;;;3.22;1.40;;;20.90;71.60;;;;;;5057118;28;20179;-76
2022/09/16 05:12:21;;;;;;;2.75;1.90;;;21.00;72.30;;;;;;5056887;28;20172;-76
2022/09/16 05:14:46;;;;;;;2.38;1.35;;;21.00;72.90;;;;;;5048854;28;20203;-77
2022/09/16 05:17:12;;;;;;;5.75;1.80;;;21.10;72.50;;;;;;5053092;28;20188;-77
2022/09/16 05:19:38;;;;;;;2.85;1.95;;;21.10;72.60;;;;;;5054730;28;21475;-76
2022/09/16 05:22:06;;;;;;;1.92;1.83;;;21.10;72.40;;;;;;5047819;28;20180;-76
2022/09/16 05:24:35;;;;;;;7.68;2.10;;;21.20;72.40;;;;;;5050960;28;20309;-77
2022/09/16 05:27:01;;;;;;;5.20;1.85;;;21.20;72.30;;;;;;5047180;28;20205;-76
2022/09/16 05:29:27;;;;;;;6.18;2.50;;;21.20;72.40;;;;;;5050901;28;20578;-78
2022/09/16 05:31:52;;;;;;;2.10;1.73;;;21.30;72.00;;;;;;5052003;28;20183;-78
2022/09/16 05:34:20;;;;;;;3.13;2.50;;;21.30;71.70;;;;;;5049033;28;20211;-76
2022/09/16 05:36:47;;;;;;;9.43;2.95;;;21.30;73.20;;;;;;5050213;28;20233;-77
2022/09/16 05:39:16;;;;;;;5.15;2.70;;;21.30;72.00;;;;;;5054364;28;20645;-77
2022/09/16 05:41:43;;;;;;;4.75;2.33;;;21.50;72.00;;;;;;5054601;28;20701;-77
2022/09/16 05:44:08;;;;;;;7.65;2.13;;;21.60;72.00;;;;;;5048687;28;20309;-78
2022/09/16 05:46:34;;;;;;;2.10;2.05;;;21.70;71.80;;;;;;5048307;28;20258;-77
2022/09/16 05:49:01;;;;;;;1.60;1.60;;;21.70;71.40;;;;;;5048706;28;20184;-77
2022/09/16 05:51:26;;;;;;;1.95;1.85;;;21.80;71.30;;;;;;5056104;28;20193;-77
2022/09/16 05:53:53;;;;;;;2.40;1.92;;;21.90;71.20;;;;;;5048520;28;20195;-77
2022/09/16 05:56:25;;;;;;;2.55;2.08;;;22.00;72.10;;;;;;5049455;28;20240;-77
2022/09/16 05:58:55;;;;;;;5.35;1.98;;;22.10;71.60;;;;;;5045749;28;20187;-77
2022/09/16 06:01:23;;;;;;;5.63;1.65;;;22.20;71.50;;;;;;5053517;28;20240;-77
2022/09/16 06:03:50;;;;;;;2.97;1.70;;;22.30;70.20;;;;;;5054130;28;20179;-77
2022/09/16 06:06:30;;;;;;;2.53;2.33;;;22.30;70.20;;;;;;5050868;28;20187;-77
2022/09/16 06:08:59;;;;;;;1.88;1.77;;;22.40;70.50;;;;;;5053723;28;20991;-77
2022/09/16 06:11:27;;;;;;;2.13;2.03;;;22.50;70.10;;;;;;5053132;28;20204;-77
2022/09/16 06:13:58;;;;;;;4.32;1.58;;;22.50;70.10;;;;;;5049562;28;20187;-79
2022/09/16 06:16:26;;;;;;;4.30;2.08;;;22.60;69.30;;;;;;5055198;28;20206;-77
2022/09/16 06:18:53;;;;;;;4.57;1.45;;;22.70;70.50;;;;;;5053949;28;20270;-76
2022/09/16 06:21:20;;;;;;;2.40;1.48;;;22.90;69.50;;;;;;5055008;28;20207;-76
2022/09/16 06:23:45;;;;;;;4.53;1.73;;;23.00;69.20;;;;;;5055775;28;21071;-76
2022/09/16 06:26:17;;;;;;;0.90;0.90;;;23.10;68.70;;;;;;5049218;28;20294;-77
2022/09/16 06:28:44;;;;;;;2.20;0.93;;;23.20;68.80;;;;;;5051387;28;20183;-77
2022/09/16 06:31:22;;;;;;;2.00;0.93;;;23.30;67.80;;;;;;5047395;28;20183;-77
2022/09/16 06:33:52;;;;;;;2.85;1.13;;;23.40;67.80;;;;;;5048473;28;20653;-76
2022/09/16 06:36:20;;;;;;;6.20;1.38;;;23.50;68.10;;;;;;5052041;28;20223;-77
2022/09/16 06:38:46;;;;;;;2.72;1.35;;;23.70;66.80;;;;;;5053284;28;20176;-77
2022/09/16 06:41:14;;;;;;;2.55;1.83;;;23.80;66.60;;;;;;5051585;28;20183;-77
2022/09/16 06:43:41;;;;;;;5.93;1.48;;;23.80;66.50;;;;;;5047171;28;20191;-77
2022/09/16 06:46:12;;;;;;;0.95;0.95;;;23.90;65.90;;;;;;5049469;28;20256;-77
2022/09/16 06:48:39;;;;;;;4.53;1.23;;;23.90;65.50;;;;;;5051373;28;20194;-76
2022/09/16 06:51:10;;;;;;;3.50;1.63;;;24.00;65.40;;;;;;5048317;28;20180;-77
2022/09/16 06:53:36;;;;;;;4.95;1.10;;;24.00;65.10;;;;;;5050483;28;20770;-77
2022/09/16 06:56:04;;;;;;;4.00;1.35;;;24.10;65.60;;;;;;5049932;28;20212;-77
2022/09/16 06:58:34;;;;;;;2.70;1.40;;;24.10;65.30;;;;;;5053929;28;20240;-77
2022/09/16 07:01:11;;;;;;;5.15;1.40;;;24.20;65.00;;;;;;5048159;28;20199;-77
2022/09/16 07:03:39;;;;;;;1.75;1.40;;;24.20;65.20;;;;;;5052718;28;20210;-77
2022/09/16 07:06:05;;;;;;;3.33;1.33;;;24.20;64.80;;;;;;5049021;28;20201;-76
2022/09/16 07:08:32;;;;;;;1.45;1.23;;;24.30;65.10;;;;;;5043177;28;20187;-76
2022/09/16 07:11:05;;;;;;;1.63;1.30;;;24.30;65.50;;;;;;5049735;28;20196;-76
2022/09/16 07:13:31;;;;;;;4.22;1.35;;;24.40;65.30;;;;;;5049021;28;20188;-76
2022/09/16 07:16:05;;;;;;;3.20;1.20;;;24.50;65.20;;;;;;5049665;28;20211;-78
2022/09/16 07:18:32;;;;;;;3.15;1.02;;;24.60;65.00;;;;;;5049652;28;20252;-76
2022/09/16 07:21:04;;;;;;;5.03;1.25;;;24.80;64.20;;;;;;5048397;28;20186;-76
2022/09/16 07:23:31;;;;;;;5.68;1.13;;;24.80;64.30;;;;;;5050003;28;20179;-76
2022/09/16 07:26:27;;;;;;;6.07;1.13;;;24.90;64.70;;;;;;5048445;28;20188;-75
2022/09/16 07:28:54;;;;;;;4.32;1.33;;;25.00;64.70;;;;;;5046963;28;21000;-76
2022/09/16 07:31:28;;;;;;;2.38;1.15;;;25.10;64.60;;;;;;5051077;28;20268;-75
2022/09/16 07:33:57;;;;;;;0.90;0.90;;;25.20;64.50;;;;;;5049360;28;20183;-76
2022/09/16 07:36:25;;;;;;;1.92;1.10;;;25.30;64.40;;;;;;5049586;28;20242;-75
2022/09/16 07:38:51;;;;;;;1.05;1.05;;;25.40;64.30;;;;;;5050902;28;20174;-76
2022/09/16 07:41:22;;;;;;;2.75;1.33;;;25.50;64.30;;;;;;5049559;28;20233;-76
2022/09/16 07:43:49;;;;;;;2.05;1.50;;;25.60;64.10;;;;;;5051530;28;20195;-79
2022/09/16 07:46:17;;;;;;;1.13;0.90;;;25.60;64.60;;;;;;5048991;28;20179;-76
2022/09/16 07:48:44;;;;;;;3.88;1.13;;;25.70;63.60;;;;;;5050726;28;20194;-76
2022/09/16 07:51:12;;;;;;;2.25;1.23;;;25.80;64.00;;;;;;5050425;28;20182;-76
2022/09/16 07:53:39;;;;;;;2.80;1.42;;;25.90;63.80;;;;;;5049939;28;21012;-76
2022/09/16 07:56:17;;;;;;;3.42;1.45;;;26.00;63.60;;;;;;5053463;28;20215;-76
2022/09/16 07:58:44;;;;;;;2.00;1.55;;;26.10;63.80;;;;;;5052996;28;20270;-77
2022/09/16 08:01:10;;;;;;;5.63;1.50;;;26.20;63.90;;;;;;5047780;28;20619;-77
2022/09/16 08:03:45;;;;;;;5.97;1.17;;;26.40;63.60;;;;;;5052316;28;20609;-76
2022/09/16 08:06:13;;;;;;;7.82;2.10;;;26.60;63.40;;;;;;5049322;28;20621;-76
2022/09/16 08:08:39;;;;;;;4.70;1.40;;;26.80;63.60;;;;;;5050789;28;20176;-76
2022/09/16 08:11:06;;;;;;;2.28;1.30;;;27.00;62.70;;;;;;5055095;28;20260;-75
2022/09/16 08:13:33;;;;;;;3.50;1.23;;;27.10;62.40;;;;;;5049085;28;20222;-76
2022/09/16 08:16:02;;;;;;;2.15;1.60;;;27.30;62.00;;;;;;5052244;28;20211;-76
2022/09/16 08:18:28;;;;;;;7.18;1.30;;;27.60;61.80;;;;;;5051010;28;20650;-76
2022/09/16 08:20:53;;;;;;;2.58;1.23;;;27.70;62.40;;;;;;5055319;28;20258;-76
2022/09/16 08:23:19;;;;;;;5.65;1.58;;;27.90;61.80;;;;;;5049929;28;20226;-77
2022/09/16 08:25:58;;;;;;;3.15;1.40;;;28.20;60.70;;;;;;5049824;28;20282;-76
2022/09/16 08:28:24;;;;;;;1.42;1.33;;;28.70;60.30;;;;;;5048668;28;20274;-76
2022/09/16 08:30:50;;;;;;;6.47;1.23;;;29.20;58.50;;;;;;5052307;28;20180;-78
2022/09/16 08:33:19;;;;;;;1.35;1.35;;;29.70;59.10;;;;;;5053846;28;20277;-76
2022/09/16 08:36:07;;;;;;;5.07;1.50;;;30.10;58.80;;;;;;5047288;28;20215;-76
2022/09/16 08:38:34;;;;;;;9.40;1.10;;;30.40;58.20;;;;;;5055921;28;20266;-76
2022/09/16 08:41:37;;;;;;;5.78;1.13;;;30.60;57.90;;;;;;5047916;28;20184;-76
2022/09/16 08:44:26;;;;;;;4.30;1.33;;;30.70;57.40;;;;;;5056459;28;20787;-77
2022/09/16 08:46:54;;;;;;;9.52;1.67;;;30.90;55.10;;;;;;5051178;28;20190;-76
2022/09/16 08:49:39;;;;;;;1.40;1.27;;;31.00;55.00;;;;;;5049263;28;20187;-76
2022/09/16 08:52:13;;;;;;;4.10;1.90;;;31.10;55.90;;;;;;5058136;28;20194;-76
2022/09/16 08:54:51;;;;;;;5.00;1.23;;;31.10;55.20;;;;;;5054923;28;20336;-76
2022/09/16 08:57:22;;;;;;;4.43;1.27;;;31.10;54.60;;;;;;5053829;28;20673;-76
2022/09/16 08:59:53;;;;;;;2.42;1.75;;;31.00;55.10;;;;;;5054186;28;20187;-77
2022/09/16 09:02:42;;;;;;;3.50;1.17;;;31.00;54.90;;;;;;5055523;28;20184;-78
2022/09/16 09:05:24;;;;;;;4.82;1.27;;;30.90;55.20;;;;;;5053487;28;20180;-76
2022/09/16 09:08:11;;;;;;;4.57;1.30;;;30.80;55.30;;;;;;5053725;28;20205;-76
2022/09/16 09:10:49;;;;;;;3.60;1.70;;;30.80;55.50;;;;;;5055148;28;20239;-76
2022/09/16 09:13:36;;;;;;;2.92;1.35;;;30.90;55.80;;;;;;5053600;28;20578;-76
2022/09/16 09:16:17;;;;;;;2.80;2.00;;;30.90;55.50;;;;;;5054883;28;20279;-76
2022/09/16 09:19:07;;;;;;;6.25;1.35;;;30.70;55.90;;;;;;5053731;28;20184;-76
2022/09/16 09:22:17;;;;;;;3.58;1.10;;;30.70;56.50;;;;;;5055665;28;20723;-76
2022/09/16 09:24:51;;;;;;;3.45;1.35;;;30.70;56.20;;;;;;5020813;28;20211;-76
2022/09/16 09:27:41;;;;;;;5.88;1.80;;;30.70;56.10;;;;;;5020543;28;20194;-76
2022/09/16 09:30:19;;;;;;;2.50;1.35;;;30.80;56.50;;;;;;5021822;28;21966;-77
2022/09/16 09:32:53;;;;;;;1.67;1.55;;;30.90;56.60;;;;;;5022134;28;20192;-76
2022/09/16 09:35:19;;;;;;;2.75;1.33;;;31.00;56.50;;;;;;5022508;28;20220;-76
2022/09/16 09:38:01;;;;;;;8.23;1.73;;;31.00;56.40;;;;;;5020176;28;20188;-76
2022/09/16 09:40:53;;;;;;;2.45;1.38;;;31.10;55.60;;;;;;5018003;28;20648;-75
2022/09/16 09:43:36;;;;;;;4.38;1.20;;;31.10;55.50;;;;;;5019988;28;20206;-75
2022/09/16 09:46:04;;;;;;;1.65;1.33;;;31.10;56.20;;;;;;5022911;28;20192;-76
2022/09/16 09:49:16;;;;;;;1.92;1.15;;;31.10;56.50;;;;;;5023161;28;20199;-76
2022/09/16 09:51:48;;;;;;;1.48;1.35;;;31.10;56.30;;;;;;4907812;29;20287;-76
2022/09/16 09:54:24;;;;;;;3.00;1.30;;;31.10;55.60;;;;;;4906414;29;20204;-77
2022/09/16 09:56:58;;;;;;;5.15;1.40;;;30.90;56.40;;;;;;4904798;29;20210;-76
2022/09/16 09:59:24;;;;;;;4.80;1.40;;;30.80;56.10;;;;;;4904187;29;20195;-76
2022/09/16 10:01:54;;;;;;;6.35;1.40;;;30.80;56.00;;;;;;4926763;29;20199;-76
2022/09/16 10:04:20;;;;;;;2.15;1.23;;;30.70;56.50;;;;;;4929337;29;20249;-77
2022/09/16 10:06:48;;;;;;;4.18;1.20;;;30.40;56.50;;;;;;4933158;29;20202;-77
2022/09/16 10:09:15;;;;;;;1.63;1.13;;;29.90;57.10;;;;;;4929551;29;20586;-77
2022/09/16 10:11:54;;;;;;;5.50;1.50;;;29.60;57.90;;;;;;4934360;29;20191;-76
2022/09/16 10:14:36;;;;;;;3.20;1.60;;;29.50;58.90;;;;;;4929035;29;20183;-77
2022/09/16 10:17:13;;;;;;;3.15;1.23;;;29.10;60.00;;;;;;4931891;29;20200;-77
2022/09/16 10:20:12;;;;;;;2.10;1.40;;;28.70;60.30;;;;;;4926890;29;20205;-76
2022/09/16 10:22:38;;;;;;;2.55;1.58;;;28.50;61.20;;;;;;4930760;28;20204;-76
2022/09/16 10:25:20;;;;;;;4.47;1.30;;;28.10;62.30;;;;;;4929642;29;20227;-76
2022/09/16 10:27:55;;;;;;;2.00;1.40;;;27.40;63.70;;;;;;4948448;28;20686;-76
2022/09/16 10:30:21;;;;;;;1.30;1.20;;;26.80;65.40;;;;;;5052614;28;20229;-76
2022/09/16 10:33:15;;;;;;;1.33;1.33;;;26.60;67.20;;;;;;5046772;28;20591;-76
2022/09/16 10:36:02;;;;;;;3.17;1.23;;;25.90;69.00;;;;;;5045155;28;20949;-77
2022/09/16 10:38:40;;;;;;;2.17;1.05;;;25.40;70.50;;;;;;5050941;28;20265;-77
2022/09/16 10:41:13;;;;;;;3.50;0.80;;;24.90;71.70;;;;;;5052612;28;20171;-79
2022/09/16 10:43:47;;;;;;;1.85;0.82;;;24.60;72.20;;;;;;5049937;28;20195;-77
2022/09/16 10:46:15;;;;;;;1.88;0.80;;;24.30;74.30;;;;;;5054978;28;20179;-78
2022/09/16 10:48:42;;;;;;;1.77;0.80;;;23.70;76.80;;;;;;5052521;28;20878;-77
2022/09/16 10:51:28;;;;;;;3.67;0.63;;;23.10;78.30;;;;;;5055233;28;20179;-77
2022/09/16 10:53:59;;;;;;;2.13;0.82;;;22.70;80.00;;;;;;5052335;28;20940;-76
2022/09/16 10:56:30;;;;;;;1.50;0.60;;;22.50;79.90;;;;;;5050217;28;20723;-77
2022/09/16 10:59:09;;;;;;;4.13;0.50;;;22.40;80.30;;;;;;5054892;28;20176;-77
2022/09/16 11:02:04;;;;;;;2.38;0.73;;;22.20;78.70;;;;;;5052687;28;20210;-76
2022/09/16 11:05:01;;;;;;;1.48;0.40;;;22.30;79.30;;;;;;5049302;28;20190;-76
2022/09/16 11:07:35;;;;;;;0.47;0.47;;;22.20;80.40;;;;;;5051537;28;20191;-76
2022/09/16 11:10:37;;;;;;;2.08;0.60;;;22.10;80.00;;;;;;5051142;28;20197;-77
2022/09/16 11:13:15;;;;;;;4.00;0.70;;;22.20;80.50;;;;;;5049262;28;20357;-76
2022/09/16 11:15:48;;;;;;;1.40;0.50;;;22.30;77.50;;;;;;5049697;28;20268;-77
2022/09/16 11:18:52;;;;;;;0.68;0.32;;;22.70;79.70;;;;;;5051268;28;20237;-77
2022/09/16 11:21:48;;;;;;;0.85;0.30;;;23.60;76.50;;;;;;5050476;28;20571;-77
2022/09/16 11:24:39;;;;;;;2.70;0.40;;;24.80;72.20;;;;;;5053548;28;20295;-77
2022/09/16 11:27:36;;;;;;;0.35;0.30;;;25.50;70.10;;;;;;5046531;28;20202;-78
2022/09/16 11:30:18;;;;;;;0.35;0.35;;;26.20;67.90;;;;;;5055905;28;20188;-77
2022/09/16 11:32:49;;;;;;;1.85;0.40;;;26.90;67.20;;;;;;5050675;28;20193;-77
2022/09/16 11:35:34;;;;;;;0.32;0.32;;;27.20;65.30;;;;;;5051707;28;20219;-77
2022/09/16 11:38:00;;;;;;;0.38;0.38;;;27.30;64.70;;;;;;5050556;28;20183;-77
2022/09/16 11:40:38;;;;;;;0.15;0.15;;;27.50;63.90;;;;;;5048882;28;20182;-77
2022/09/16 11:43:42;;;;;;;0.20;0.10;;;27.90;62.70;;;;;;5049075;28;20608;-76
2022/09/16 11:46:39;;;;;;;1.08;0.30;;;28.20;61.40;;;;;;5049536;28;20195;-76
2022/09/16 11:49:20;;;;;;;0.20;0.20;;;28.50;61.30;;;;;;5047831;28;20191;-77
2022/09/16 11:52:19;;;;;;;1.05;0.20;;;28.70;60.70;;;;;;5049900;28;20188;-76
2022/09/16 11:55:03;;;;;;;1.33;0.35;;;28.80;60.50;;;;;;5049314;28;20200;-78
2022/09/16 11:57:35;;;;;;;0.25;0.25;;;29.00;60.50;;;;;;5050760;28;20627;-76
2022/09/16 12:00:09;;;;;;;0.20;0.20;;;29.30;60.20;;;;;;5053321;28;20216;-77
2022/09/16 12:03:03;;;;;;;2.03;0.50;;;29.60;59.90;;;;;;5047646;28;20190;-76
2022/09/16 12:05:35;;;;;;;0.20;0.20;;;30.00;59.80;;;;;;5050583;28;20190;-76
2022/09/16 12:08:03;;;;;;;1.65;0.30;;;30.60;57.10;;;;;;5051431;28;20190;-76
2022/09/16 12:10:58;;;;;;;1.17;0.20;;;30.90;57.10;;;;;;5053600;28;20179;-75
2022/09/16 12:13:23;;;;;;;0.35;0.35;;;31.00;56.00;;;;;;4992966;28;20205;-76
2022/09/16 12:15:57;;;;;;;0.98;0.30;;;31.10;57.70;;;;;;4988712;28;20221;-76
2022/09/16 12:18:34;;;;;;;0.45;0.30;;;31.20;58.40;;;;;;4992955;28;20275;-76
2022/09/16 12:21:20;;;;;;;0.28;0.28;;;31.50;57.90;;;;;;4990600;28;20252;-76
2022/09/16 12:24:00;;;;;;;1.75;0.65;;;31.60;58.10;;;;;;4992434;28;20994;-76
2022/09/16 12:26:35;;;;;;;1.30;0.50;;;31.70;57.80;;;;;;4989075;28;20670;-76
2022/09/16 12:29:30;;;;;;;1.52;0.32;;;31.60;58.40;;;;;;4990903;28;20216;-76
2022/09/16 12:32:18;;;;;;;1.02;0.43;;;31.30;58.70;;;;;;4942771;29;20209;-76
2022/09/16 12:34:50;;;;;;;0.40;0.40;;;31.10;58.50;;;;;;4942959;29;20210;-77
2022/09/16 12:37:43;;;;;;;0.40;0.40;;;31.00;58.20;;;;;;4941483;28;20404;-78
2022/09/16 12:40:40;;;;;;;1.20;0.40;;;30.70;59.10;;;;;;4949648;29;20179;-78
2022/09/16 12:43:56;;;;;;;0.82;0.70;;;30.30;60.20;;;;;;4943898;28;20298;-77
2022/09/16 12:46:33;;;;;;;1.45;0.75;;;30.00;60.70;;;;;;4896848;29;20856;-77
2022/09/16 12:49:02;;;;;;;3.20;0.90;;;29.60;61.20;;;;;;4897703;29;20200;-79
2022/09/16 12:51:38;;;;;;;3.88;0.70;;;29.40;62.40;;;;;;4945198;28;20206;-78
2022/09/16 12:54:28;;;;;;;2.67;0.63;;;29.10;62.10;;;;;;4957790;28;20191;-78
2022/09/16 12:57:25;;;;;;;1.10;0.75;;;28.90;62.90;;;;;;4952714;28;20214;-79
2022/09/16 13:00:10;;;;;;;3.08;0.82;;;28.60;63.10;;;;;;4947867;28;20194;-76
2022/09/16 13:02:44;;;;;;;0.90;0.50;;;28.30;64.50;;;;;;4950963;28;20218;-80
2022/09/16 13:05:32;;;;;;;1.90;1.05;;;28.00;65.20;;;;;;4949971;28;20202;-78
2022/09/16 13:08:18;;;;;;;1.55;0.65;;;27.80;65.50;;;;;;4957223;28;20373;-80
2022/09/16 13:10:44;;;;;;;2.30;0.80;;;27.60;65.50;;;;;;4965215;28;20205;-79
2022/09/16 13:13:23;;;;;;;0.77;0.77;;;27.40;66.10;;;;;;4979879;28;20567;-79
2022/09/16 13:15:59;;;;;;;1.20;0.70;;;27.30;66.80;;;;;;4971055;28;20213;-80
2022/09/16 13:18:42;;;;;;;0.95;0.90;;;27.00;67.50;;;;;;5046869;28;20275;-80
2022/09/16 13:21:28;;;;;;;1.45;0.88;;;26.80;68.20;;;;;;5048602;28;20211;-78
2022/09/16 13:24:11;;;;;;;0.95;0.90;;;26.50;68.50;;;;;;5049528;28;20218;-77